Time;durP1;ratioP1;P1;durP2;ratioP2;P2;SDS_P1;SDS_P2;PMS_P1;PMS_P2;Temp;Humidity;BMP_temperature;BMP_pressure;BME280_temperature;BME280_humidity;BME280_pressure;Samples;Min_cycle;Max_cycle;Signal;HPM_P1;HPM_P2
2022/02/05 00:01:18;;;;;;;;;;;12.50;55.10;;;;;;5161570;27;20114;-70
2022/02/05 00:03:48;;;;;;;;;;;12.50;55.10;;;;;;5161623;27;19914;-69
2022/02/05 00:06:19;;;;;;;;;;;12.50;55.20;;;;;;5161882;27;19937;-69
2022/02/05 00:43:07;;;;;;;;;;;12.50;55.20;;;;;;5161274;27;19911;-71
2022/02/05 00:45:37;;;;;;;;;;;12.40;55.10;;;;;;5161223;27;19914;-70
2022/02/05 00:48:04;;;;;;;;;;;12.40;55.10;;;;;;5161204;27;19911;-70
2022/02/05 00:50:32;;;;;;;;;;;12.50;55.10;;;;;;5142674;27;20259;-69
2022/02/05 00:53:42;;;;;;;;;;;12.40;55.00;;;;;;5161146;27;19911;-70
2022/02/05 00:55:53;;;;;;;;;;;12.40;55.00;;;;;;5149826;27;20443;-70
2022/02/05 00:58:19;;;;;;;;;;;12.50;55.00;;;;;;5161132;27;20298;-70
2022/02/05 01:00:44;;;;;;;;;;;12.50;55.00;;;;;;5161054;27;19990;-70
2022/02/05 01:03:10;;;;;;;;;;;12.40;55.00;;;;;;5160898;27;19919;-70
2022/02/05 01:05:36;;;;;;;;;;;12.50;55.20;;;;;;5161004;27;19911;-70
2022/02/05 01:08:02;;;;;;;;;;;12.50;55.00;;;;;;5161383;27;19915;-70
2022/02/05 01:10:28;;;;;;;;;;;12.50;54.90;;;;;;5161029;27;19974;-70
2022/02/05 01:12:58;;;;;;;;;;;12.50;55.00;;;;;;5160952;27;19911;-69
2022/02/05 01:15:30;;;;;;;;;;;12.50;55.00;;;;;;5160953;27;19952;-69
2022/02/05 01:18:00;;;;;;;;;;;12.50;55.10;;;;;;5160998;27;19904;-69
2022/02/05 01:23:14;;;;;;;;;;;12.50;55.10;;;;;;5161155;27;19964;-69
2022/02/05 01:25:46;;;;;;;;;;;12.50;55.00;;;;;;5164646;27;19950;-69
2022/02/05 01:28:19;;;;;;;;;;;12.50;54.90;;;;;;5164600;27;20386;-71
2022/02/05 01:30:49;;;;;;;;;;;12.50;55.10;;;;;;5145870;27;20198;-70
2022/02/05 01:55:13;;;;;;;;;;;12.40;55.00;;;;;;5164054;27;19951;-69
2022/02/05 01:57:58;;;;;;;;;;;12.40;55.10;;;;;;5164198;27;19910;-70
2022/02/05 02:14:38;;;;;;;;;;;12.40;55.00;;;;;;5163631;27;19944;-71
2022/02/05 02:22:11;;;;;;;;;;;12.40;54.90;;;;;;5163745;27;19903;-70
2022/02/05 02:30:06;;;;;;;;;;;12.40;54.90;;;;;;5163426;27;20424;-70
2022/02/05 02:32:35;;;;;;;;;;;12.40;55.00;;;;;;5163276;27;19952;-70
2022/02/05 02:35:06;;;;;;;;;;;12.40;55.00;;;;;;5163225;27;19911;-69
2022/02/05 02:37:39;;;;;;;;;;;12.40;55.10;;;;;;5163259;27;20299;-70
2022/02/05 02:40:23;;;;;;;;;;;12.40;55.10;;;;;;5163332;27;20234;-70
2022/02/05 02:42:51;;;;;;;;;;;12.40;55.00;;;;;;5163149;27;19907;-69
2022/02/05 02:45:17;;;;;;;;;;;12.40;55.00;;;;;;5163197;27;19953;-70
2022/02/05 02:47:44;;;;;;;;;;;12.40;55.00;;;;;;5162939;27;19911;-68
2022/02/05 02:50:18;;;;;;;;;;;12.40;55.00;;;;;;5162930;27;19970;-69
2022/02/05 02:58:17;;;;;;;;;;;12.40;54.90;;;;;;5162850;27;19948;-70
2022/02/05 03:00:43;;;;;;;;;;;12.40;54.80;;;;;;5162685;27;19915;-70
2022/02/05 03:03:08;;;;;;;;;;;12.50;55.10;;;;;;5143809;27;20199;-70
2022/02/05 03:05:34;;;;;;;;;;;12.40;54.90;;;;;;5162613;27;20252;-70
2022/02/05 03:07:59;;;;;;;;;;;12.40;54.90;;;;;;5162552;27;20000;-69
2022/02/05 03:10:25;;;;;;;;;;;12.40;54.90;;;;;;5162475;27;19904;-70
2022/02/05 03:12:51;;;;;;;;;;;12.40;55.10;;;;;;5162461;27;19911;-70
2022/02/05 03:15:20;;;;;;;;;;;12.40;55.20;;;;;;5162439;27;20219;-69
2022/02/05 03:18:03;;;;;;;;;;;12.40;55.00;;;;;;5162359;27;20139;-70
2022/02/05 03:20:28;;;;;;;;;;;12.40;54.90;;;;;;5143691;27;19950;-69
2022/02/05 03:22:54;;;;;;;;;;;12.40;55.00;;;;;;5162299;27;19918;-70
2022/02/05 03:25:19;;;;;;;;;;;12.40;55.00;;;;;;5162313;27;19977;-69
2022/02/05 03:27:45;;;;;;;;;;;12.40;55.00;;;;;;5162131;27;20137;-70
2022/02/05 03:30:11;;;;;;;;;;;12.40;54.90;;;;;;5162188;27;19930;-69
2022/02/05 03:32:36;;;;;;;;;;;12.40;54.90;;;;;;5162154;27;19911;-69
2022/02/05 03:35:02;;;;;;;;;;;12.40;54.90;;;;;;5162029;27;20294;-70
2022/02/05 03:37:28;;;;;;;;;;;12.40;54.90;;;;;;5161988;27;19911;-70
2022/02/05 03:39:53;;;;;;;;;;;12.40;54.90;;;;;;5161909;27;19946;-71
2022/02/05 03:42:19;;;;;;;;;;;12.40;54.90;;;;;;5161968;27;19975;-69
2022/02/05 03:44:44;;;;;;;;;;;12.40;54.90;;;;;;5161891;27;19915;-69
2022/02/05 03:47:10;;;;;;;;;;;12.40;54.90;;;;;;5161441;27;19911;-70
2022/02/05 03:49:36;;;;;;;;;;;12.40;55.00;;;;;;5161748;27;19911;-70
2022/02/05 03:52:01;;;;;;;;;;;12.40;55.10;;;;;;5161964;27;19918;-70
2022/02/05 03:54:30;;;;;;;;;;;12.40;55.10;;;;;;5161708;27;19932;-70
2022/02/05 03:56:55;;;;;;;;;;;12.40;55.10;;;;;;5161739;27;19949;-69
2022/02/05 03:59:21;;;;;;;;;;;12.40;55.00;;;;;;5161831;27;19911;-69
2022/02/05 04:01:47;;;;;;;;;;;12.30;55.00;;;;;;5161710;27;19973;-70
2022/02/05 04:04:12;;;;;;;;;;;12.30;55.10;;;;;;5161542;27;19926;-70
2022/02/05 04:06:38;;;;;;;;;;;12.40;55.10;;;;;;5161604;27;19903;-69
2022/02/05 04:09:09;;;;;;;;;;;12.40;55.10;;;;;;5161531;27;19946;-69
2022/02/05 04:11:50;;;;;;;;;;;12.40;55.00;;;;;;5161635;27;19911;-69
2022/02/05 04:17:01;;;;;;;;;;;12.40;54.90;;;;;;5161676;27;19975;-69
2022/02/05 04:19:27;;;;;;;;;;;12.40;55.00;;;;;;5142865;27;20337;-68
2022/02/05 04:21:52;;;;;;;;;;;12.40;55.60;;;;;;5161489;27;19911;-69
2022/02/05 04:24:18;;;;;;;;;;;12.30;55.00;;;;;;5161434;27;19911;-68
2022/02/05 04:26:44;;;;;;;;;;;12.30;55.00;;;;;;5161402;27;19960;-69
2022/02/05 04:29:10;;;;;;;;;;;12.40;55.10;;;;;;5161423;27;20107;-69
2022/02/05 04:31:37;;;;;;;;;;;12.30;55.10;;;;;;5161441;27;19940;-69
2022/02/05 04:34:03;;;;;;;;;;;12.40;55.10;;;;;;5161391;27;19918;-70
2022/02/05 04:36:28;;;;;;;;;;;12.40;55.00;;;;;;5161309;27;20231;-69
2022/02/05 04:38:58;;;;;;;;;;;12.30;54.90;;;;;;5161360;27;19946;-69
2022/02/05 04:41:31;;;;;;;;;;;12.30;55.10;;;;;;5161269;27;19986;-70
2022/02/05 04:44:19;;;;;;;;;;;12.30;55.10;;;;;;5161356;27;19911;-69
2022/02/05 04:49:53;;;;;;;;;;;12.30;55.10;;;;;;5161508;27;19918;-69
2022/02/05 04:55:03;;;;;;;;;;;12.30;55.00;;;;;;5161379;27;19911;-69
2022/02/05 05:04:56;;;;;;;;;;;12.30;55.10;;;;;;5165096;27;19967;-70
2022/02/05 05:20:25;;;;;;;;;;;12.40;55.10;;;;;;5164666;27;20275;-69
2022/02/05 05:22:51;;;;;;;;;;;12.30;55.10;;;;;;5164705;27;19938;-70
2022/02/05 05:25:17;;;;;;;;;;;12.30;55.00;;;;;;5164671;27;19918;-70
2022/02/05 05:27:43;;;;;;;;;;;12.30;55.10;;;;;;5164668;27;19911;-71
2022/02/05 05:30:09;;;;;;;;;;;12.30;55.10;;;;;;5164542;27;19903;-70
2022/02/05 05:32:35;;;;;;;;;;;12.30;55.10;;;;;;5164520;27;19918;-70
2022/02/05 05:35:00;;;;;;;;;;;12.30;55.10;;;;;;5164545;27;19966;-71
2022/02/05 05:37:26;;;;;;;;;;;12.30;55.10;;;;;;5164298;27;19912;-70
2022/02/05 05:39:51;;;;;;;;;;;12.30;55.10;;;;;;5145648;27;19922;-70
2022/02/05 05:42:25;;;;;;;;;;;12.30;55.10;;;;;;5164323;27;19911;-70
2022/02/05 05:47:49;;;;;;;;;;;12.30;55.10;;;;;;5164228;27;19932;-69
2022/02/05 05:50:57;;;;;;;;;;;12.40;55.00;;;;;;5164230;27;19931;-71
2022/02/05 05:53:00;;;;;;;;;;;12.40;54.90;;;;;;5163983;27;20141;-69
2022/02/05 05:55:26;;;;;;;;;;;12.40;54.90;;;;;;5164133;27;19936;-69
2022/02/05 05:57:52;;;;;;;;;;;12.30;55.00;;;;;;5164091;27;19976;-69
2022/02/05 06:00:18;;;;;;;;;;;12.30;55.10;;;;;;5164004;27;19994;-69
2022/02/05 06:02:44;;;;;;;;;;;12.30;55.00;;;;;;5163712;27;19915;-70
2022/02/05 06:05:10;;;;;;;;;;;12.30;55.10;;;;;;5163942;27;19911;-70
2022/02/05 06:07:35;;;;;;;;;;;12.30;55.00;;;;;;5163871;27;20132;-69
2022/02/05 06:10:01;;;;;;;;;;;12.30;55.00;;;;;;5163330;27;19918;-69
2022/02/05 06:12:26;;;;;;;;;;;12.40;55.00;;;;;;5163751;27;19959;-70
2022/02/05 06:14:52;;;;;;;;;;;12.30;55.00;;;;;;5163701;27;19918;-69
2022/02/05 06:17:24;;;;;;;;;;;12.40;55.00;;;;;;5163671;27;20196;-69
2022/02/05 06:19:49;;;;;;;;;;;12.30;54.90;;;;;;5163530;27;20156;-70
2022/02/05 06:22:15;;;;;;;;;;;12.30;55.00;;;;;;5163546;27;19948;-69
2022/02/05 06:24:40;;;;;;;;;;;12.30;55.00;;;;;;5163564;27;19940;-69
2022/02/05 06:27:07;;;;;;;;;;;12.30;55.10;;;;;;5163396;27;20108;-70
2022/02/05 06:29:33;;;;;;;;;;;12.30;55.00;;;;;;5163419;27;20116;-69
2022/02/05 06:31:59;;;;;;;;;;;12.20;54.80;;;;;;5163380;27;19933;-69
2022/02/05 06:34:25;;;;;;;;;;;12.20;55.10;;;;;;5163344;27;20009;-70
2022/02/05 06:36:51;;;;;;;;;;;12.20;55.20;;;;;;5163307;27;19986;-69
2022/02/05 06:39:17;;;;;;;;;;;12.30;55.10;;;;;;5163217;27;20445;-70
2022/02/05 06:41:42;;;;;;;;;;;12.30;55.00;;;;;;5163239;27;19926;-70
2022/02/05 06:44:08;;;;;;;;;;;12.30;55.00;;;;;;5163285;27;19918;-70
2022/02/05 06:46:33;;;;;;;;;;;12.30;55.10;;;;;;5163123;27;19911;-69
2022/02/05 06:48:59;;;;;;;;;;;12.30;55.10;;;;;;5163548;27;19918;-69
2022/02/05 06:51:25;;;;;;;;;;;12.30;55.10;;;;;;5163045;27;20270;-70
2022/02/05 06:53:50;;;;;;;;;;;12.30;55.10;;;;;;5162912;27;19910;-69
2022/02/05 06:56:16;;;;;;;;;;;12.30;55.10;;;;;;5163099;27;19911;-70
2022/02/05 06:58:41;;;;;;;;;;;12.30;55.10;;;;;;5162915;27;19911;-69
2022/02/05 07:01:07;;;;;;;;;;;12.30;55.00;;;;;;5162704;27;19915;-70
2022/02/05 07:03:33;;;;;;;;;;;12.30;54.90;;;;;;5162581;27;20222;-69
2022/02/05 07:05:58;;;;;;;;;;;12.30;54.90;;;;;;5162710;27;19959;-69
2022/02/05 07:08:24;;;;;;;;;;;12.30;55.00;;;;;;5162553;27;20203;-69
2022/02/05 07:10:51;;;;;;;;;;;12.30;54.90;;;;;;5162699;27;19911;-69
2022/02/05 07:13:19;;;;;;;;;;;12.30;55.10;;;;;;5162589;27;19911;-69
2022/02/05 07:20:57;;;;;;;;;;;12.30;55.00;;;;;;5161730;27;19919;-70
2022/02/05 07:23:47;;;;;;;;;;;12.30;54.90;;;;;;5162295;27;19959;-70
2022/02/05 07:29:13;;;;;;;;;;;12.40;54.90;;;;;;5162380;27;19917;-70
2022/02/05 07:31:41;;;;;;;;;;;12.30;55.00;;;;;;5162234;27;19998;-69
2022/02/05 07:34:07;;;;;;;;;;;12.30;54.90;;;;;;5162192;27;19911;-70
2022/02/05 07:36:32;;;;;;;;;;;12.40;54.90;;;;;;5162146;27;19955;-70
2022/02/05 07:38:58;;;;;;;;;;;12.40;54.90;;;;;;5162050;27;19911;-70
2022/02/05 07:41:24;;;;;;;;;;;12.40;54.90;;;;;;5161967;27;20372;-71
2022/02/05 07:43:49;;;;;;;;;;;12.30;54.90;;;;;;5162007;27;20092;-70
2022/02/05 07:46:15;;;;;;;;;;;12.30;54.80;;;;;;5161978;27;19911;-69
2022/02/05 07:48:41;;;;;;;;;;;12.30;54.90;;;;;;5161976;27;19981;-70
2022/02/05 07:51:07;;;;;;;;;;;12.40;54.90;;;;;;5161908;27;19915;-69
2022/02/05 07:53:33;;;;;;;;;;;12.40;54.90;;;;;;5161919;27;19926;-70
2022/02/05 07:55:59;;;;;;;;;;;12.40;54.80;;;;;;5161798;27;19910;-70
2022/02/05 07:58:25;;;;;;;;;;;12.40;55.50;;;;;;5161847;27;19915;-70
2022/02/05 08:00:52;;;;;;;;;;;12.40;54.80;;;;;;5161719;27;20195;-69
2022/02/05 08:03:17;;;;;;;;;;;12.40;54.80;;;;;;5143028;27;20009;-70
2022/02/05 08:05:43;;;;;;;;;;;12.40;54.80;;;;;;5143018;27;19939;-70
2022/02/05 08:08:13;;;;;;;;;;;12.40;54.80;;;;;;5161676;27;19911;-69
2022/02/05 08:10:47;;;;;;;;;;;12.30;54.70;;;;;;5161778;27;19932;-69
2022/02/05 08:13:13;;;;;;;;;;;12.40;54.80;;;;;;5161726;27;19918;-69
2022/02/05 08:15:39;;;;;;;;;;;12.40;54.70;;;;;;5161592;27;20110;-69
2022/02/05 08:18:05;;;;;;;;;;;12.40;54.70;;;;;;5161627;27;19926;-69
2022/02/05 08:20:31;;;;;;;;;;;12.40;54.70;;;;;;5161560;27;19974;-69
2022/02/05 08:22:56;;;;;;;;;;;12.40;54.80;;;;;;5161527;27;19919;-70
2022/02/05 08:25:22;;;;;;;;;;;12.40;54.80;;;;;;5142953;27;19910;-70
2022/02/05 08:27:49;;;;;;;;;;;12.40;54.70;;;;;;5161514;27;19939;-69
2022/02/05 08:30:15;;;;;;;;;;;12.40;54.80;;;;;;5161446;27;19956;-69
2022/02/05 08:32:41;;;;;;;;;;;12.40;54.80;;;;;;5162573;27;19903;-69
2022/02/05 08:35:07;;;;;;;;;;;12.40;54.70;;;;;;5165704;27;19911;-70
2022/02/05 08:37:40;;;;;;;;;;;12.40;54.80;;;;;;5165640;27;20138;-69
2022/02/05 08:40:06;;;;;;;;;;;12.40;54.90;;;;;;5165518;27;19907;-70
2022/02/05 08:42:32;;;;;;;;;;;12.40;54.90;;;;;;5165476;27;20111;-71
2022/02/05 08:44:58;;;;;;;;;;;12.40;54.80;;;;;;5165429;27;19918;-70
2022/02/05 08:47:24;;;;;;;;;;;12.40;54.80;;;;;;5165460;27;19903;-70
2022/02/05 08:49:52;;;;;;;;;;;12.40;54.90;;;;;;5165436;27;19918;-71
2022/02/05 08:52:17;;;;;;;;;;;12.40;54.80;;;;;;5146785;27;19911;-70
2022/02/05 08:54:43;;;;;;;;;;;12.40;54.90;;;;;;5165290;27;19911;-70
2022/02/05 08:57:09;;;;;;;;;;;12.40;54.90;;;;;;5165264;27;19956;-70
2022/02/05 09:00:01;;;;;;;;;;;12.30;54.90;;;;;;5165132;27;19917;-70
2022/02/05 09:02:30;;;;;;;;;;;12.40;54.90;;;;;;5164611;27;19925;-69
2022/02/05 09:07:37;;;;;;;;;;;12.50;54.70;;;;;;5165031;27;19918;-70
2022/02/05 09:10:13;;;;;;;;;;;12.50;54.80;;;;;;5165012;27;20129;-71
2022/02/05 09:15:06;;;;;;;;;;;12.50;54.80;;;;;;5164815;27;19993;-69
2022/02/05 09:17:32;;;;;;;;;;;12.50;54.80;;;;;;5164920;27;20142;-69
2022/02/05 09:19:58;;;;;;;;;;;12.50;54.80;;;;;;5164791;27;19961;-69
2022/02/05 09:22:23;;;;;;;;;;;12.50;54.90;;;;;;5164797;27;19903;-69
2022/02/05 09:24:49;;;;;;;;;;;12.50;54.80;;;;;;5164642;27;19915;-69
2022/02/05 09:27:15;;;;;;;;;;;12.50;54.80;;;;;;5164597;27;19911;-69
2022/02/05 09:30:00;;;;;;;;;;;12.50;54.70;;;;;;5164636;27;19945;-70
2022/02/05 09:32:26;;;;;;;;;;;12.50;54.90;;;;;;5164574;27;19931;-68
2022/02/05 09:34:52;;;;;;;;;;;12.50;55.00;;;;;;5164508;27;19918;-70
2022/02/05 09:37:17;;;;;;;;;;;12.50;54.60;;;;;;5164461;27;19910;-70
2022/02/05 09:39:43;;;;;;;;;;;12.50;54.80;;;;;;5145725;27;19963;-69
2022/02/05 09:42:13;;;;;;;;;;;12.60;54.80;;;;;;5164322;27;19984;-69
2022/02/05 09:44:39;;;;;;;;;;;12.60;54.80;;;;;;5163489;27;19953;-68
2022/02/05 09:47:05;;;;;;;;;;;12.50;54.80;;;;;;5164293;27;20223;-70
2022/02/05 09:49:30;;;;;;;;;;;12.50;54.70;;;;;;5164328;27;20183;-70
2022/02/05 09:52:07;;;;;;;;;;;12.50;54.70;;;;;;5164061;27;19918;-69
2022/02/05 09:54:34;;;;;;;;;;;12.60;54.80;;;;;;5164188;27;20212;-70
2022/02/05 09:56:59;;;;;;;;;;;12.60;54.80;;;;;;5164123;27;19911;-70
2022/02/05 09:59:25;;;;;;;;;;;12.60;54.90;;;;;;5163821;27;19989;-69
2022/02/05 10:02:10;;;;;;;;;;;12.60;54.70;;;;;;5164049;27;19907;-70
2022/02/05 10:04:51;;;;;;;;;;;12.60;54.90;;;;;;5145128;27;19942;-69
2022/02/05 10:07:17;;;;;;;;;;;12.60;54.90;;;;;;5163858;27;19911;-69
2022/02/05 10:09:52;;;;;;;;;;;12.60;54.80;;;;;;5163833;27;19917;-68
2022/02/05 10:12:18;;;;;;;;;;;12.60;54.90;;;;;;5145234;27;19952;-69
2022/02/05 10:14:49;;;;;;;;;;;12.60;55.00;;;;;;5163753;27;19911;-69
2022/02/05 10:17:14;;;;;;;;;;;12.60;55.00;;;;;;5163769;27;19911;-70
2022/02/05 10:19:49;;;;;;;;;;;12.60;55.00;;;;;;5163535;27;19939;-70
2022/02/05 10:22:15;;;;;;;;;;;12.60;55.00;;;;;;5163560;27;19911;-69
2022/02/05 10:24:48;;;;;;;;;;;12.60;55.10;;;;;;5144936;27;20094;-70
2022/02/05 10:27:27;;;;;;;;;;;12.60;54.90;;;;;;5163473;27;19903;-69
2022/02/05 10:30:13;;;;;;;;;;;12.60;55.00;;;;;;5144805;27;19956;-70
2022/02/05 10:32:44;;;;;;;;;;;12.60;55.20;;;;;;5163356;27;20179;-69
2022/02/05 10:35:31;;;;;;;;;;;12.60;55.10;;;;;;5163358;27;19949;-69
2022/02/05 10:38:04;;;;;;;;;;;12.70;55.20;;;;;;5144636;27;20211;-68
2022/02/05 10:40:48;;;;;;;;;;;12.70;55.10;;;;;;5163174;27;19979;-69
2022/02/05 10:43:14;;;;;;;;;;;12.70;55.10;;;;;;5144534;27;19942;-69
2022/02/05 10:45:47;;;;;;;;;;;12.70;55.10;;;;;;5163044;27;19911;-69
2022/02/05 10:48:16;;;;;;;;;;;12.70;55.00;;;;;;5163033;27;19918;-70
2022/02/05 10:50:42;;;;;;;;;;;12.70;55.10;;;;;;5162996;27;19911;-70
2022/02/05 10:53:17;;;;;;;;;;;12.80;54.80;;;;;;5144251;27;19987;-70
2022/02/05 11:07:16;;;;;;;;;;;12.80;55.30;;;;;;5162736;27;19956;-69
2022/02/05 11:09:46;;;;;;;;;;;12.80;55.40;;;;;;5162706;27;19911;-69
2022/02/05 11:20:20;;;;;;;;;;;12.80;55.10;;;;;;5162373;27;19919;-69
2022/02/05 11:22:46;;;;;;;;;;;12.80;55.20;;;;;;5161857;27;20346;-69
2022/02/05 11:25:13;;;;;;;;;;;12.80;54.90;;;;;;5162336;27;19971;-69
2022/02/05 11:27:42;;;;;;;;;;;12.90;55.20;;;;;;5162202;27;19957;-69
2022/02/05 11:30:33;;;;;;;;;;;12.90;55.10;;;;;;5162255;27;19955;-70
2022/02/05 11:33:05;;;;;;;;;;;12.90;54.90;;;;;;5129795;27;20100;-70
2022/02/05 11:35:45;;;;;;;;;;;12.90;55.00;;;;;;5162257;27;20166;-70
2022/02/05 11:38:11;;;;;;;;;;;12.80;55.20;;;;;;5162129;27;19922;-69
2022/02/05 11:40:47;;;;;;;;;;;12.80;55.10;;;;;;5162003;27;19915;-70
2022/02/05 11:43:20;;;;;;;;;;;12.80;55.40;;;;;;5162102;27;19911;-70
2022/02/05 11:46:04;;;;;;;;;;;12.80;55.40;;;;;;5161891;27;20266;-69
2022/02/05 11:48:39;;;;;;;;;;;12.80;55.40;;;;;;5161963;27;19916;-70
2022/02/05 11:51:17;;;;;;;;;;;12.90;55.40;;;;;;5161907;27;19946;-70
2022/02/05 11:53:55;;;;;;;;;;;12.80;55.30;;;;;;5161878;27;19942;-70
2022/02/05 11:56:22;;;;;;;;;;;12.90;55.10;;;;;;5161859;27;19903;-69
2022/02/05 11:58:54;;;;;;;;;;;12.90;55.30;;;;;;5161778;27;20456;-69
2022/02/05 12:01:32;;;;;;;;;;;12.90;55.40;;;;;;5161656;27;19956;-70
2022/02/05 12:04:09;;;;;;;;;;;12.90;55.30;;;;;;5161666;27;19926;-70
2022/02/05 12:06:48;;;;;;;;;;;13.00;55.20;;;;;;5161712;27;19918;-69
2022/02/05 12:09:32;;;;;;;;;;;12.90;55.10;;;;;;5161499;27;20305;-69
2022/02/05 12:12:17;;;;;;;;;;;12.90;55.20;;;;;;5161627;27;19918;-70
2022/02/05 12:15:02;;;;;;;;;;;12.90;55.30;;;;;;5161571;27;19916;-69
2022/02/05 12:17:38;;;;;;;;;;;12.90;55.40;;;;;;5161573;27;20223;-68
2022/02/05 12:20:10;;;;;;;;;;;12.90;55.40;;;;;;5161498;27;20117;-70
2022/02/05 12:22:54;;;;;;;;;;;12.90;55.40;;;;;;5161544;27;19978;-69
2022/02/05 12:25:21;;;;;;;;;;;12.90;55.50;;;;;;5161506;27;19911;-70
2022/02/05 12:27:47;;;;;;;;;;;12.90;55.40;;;;;;5161492;27;20479;-70
2022/02/05 12:30:25;;;;;;;;;;;12.90;55.50;;;;;;5161462;27;19911;-70
2022/02/05 12:32:50;;;;;;;;;;;13.00;55.40;;;;;;5161397;27;20195;-70
2022/02/05 12:35:16;;;;;;;;;;;13.00;55.40;;;;;;5161581;27;19911;-69
2022/02/05 12:37:42;;;;;;;;;;;13.00;55.50;;;;;;5161326;27;19951;-70
2022/02/05 12:40:08;;;;;;;;;;;13.00;55.40;;;;;;5161266;27;19930;-69
2022/02/05 12:42:38;;;;;;;;;;;13.00;55.40;;;;;;5161336;27;20423;-69
2022/02/05 12:45:04;;;;;;;;;;;13.10;55.40;;;;;;5161308;27;19904;-69
2022/02/05 12:47:36;;;;;;;;;;;13.10;55.40;;;;;;5161333;27;19911;-70
2022/02/05 12:50:09;;;;;;;;;;;13.00;55.30;;;;;;5142734;27;19911;-71
2022/02/05 12:52:35;;;;;;;;;;;13.10;55.30;;;;;;5142602;27;19911;-70
2022/02/05 12:55:02;;;;;;;;;;;13.00;55.40;;;;;;5161211;27;19903;-69
2022/02/05 12:57:28;;;;;;;;;;;13.00;55.50;;;;;;5161200;27;19927;-69
2022/02/05 12:59:54;;;;;;;;;;;13.00;55.40;;;;;;5161092;27;19922;-70
2022/02/05 13:02:21;;;;;;;;;;;13.10;55.50;;;;;;5160919;27;19919;-69
2022/02/05 13:04:48;;;;;;;;;;;13.10;55.50;;;;;;5161086;27;19912;-69
2022/02/05 13:07:14;;;;;;;;;;;13.10;55.40;;;;;;5161083;27;19903;-69
2022/02/05 13:10:04;;;;;;;;;;;13.10;55.00;;;;;;5142531;27;19920;-69
2022/02/05 13:12:34;;;;;;;;;;;13.10;55.30;;;;;;5160614;27;19911;-70
2022/02/05 13:15:04;;;;;;;;;;;13.20;55.50;;;;;;5160968;27;20203;-70
2022/02/05 13:18:10;;;;;;;;;;;13.10;55.40;;;;;;5161007;27;20149;-71
2022/02/05 13:25:54;;;;;;;;;;;13.10;55.30;;;;;;5164705;27;20115;-70
2022/02/05 13:36:11;;;;;;;;;;;13.00;55.50;;;;;;5164477;27;19910;-71
2022/02/05 13:38:58;;;;;;;;;;;13.10;55.80;;;;;;5164487;27;19911;-70
2022/02/05 13:41:41;;;;;;;;;;;13.10;55.60;;;;;;5164276;27;19914;-69
2022/02/05 13:44:13;;;;;;;;;;;13.10;55.50;;;;;;5164391;27;19986;-69
2022/02/05 13:46:38;;;;;;;;;;;13.10;55.40;;;;;;5164251;27;19910;-70
2022/02/05 13:49:15;;;;;;;;;;;13.20;55.30;;;;;;5164336;27;19911;-70
2022/02/05 13:51:40;;;;;;;;;;;13.20;55.30;;;;;;5145632;27;19911;-69
2022/02/05 13:54:06;;;;;;;;;;;13.20;55.30;;;;;;5163674;27;19911;-69
2022/02/05 13:56:33;;;;;;;;;;;13.20;55.20;;;;;;5164143;27;20225;-69
2022/02/05 13:58:59;;;;;;;;;;;13.30;55.10;;;;;;5164125;27;19903;-70
2022/02/05 14:01:28;;;;;;;;;;;13.30;55.10;;;;;;5163965;27;20150;-71
2022/02/05 14:03:54;;;;;;;;;;;13.30;55.10;;;;;;5145292;27;19911;-70
2022/02/05 14:06:20;;;;;;;;;;;13.30;55.00;;;;;;5145448;27;19986;-70
2022/02/05 14:08:47;;;;;;;;;;;13.30;55.20;;;;;;5163863;27;19903;-69
2022/02/05 14:11:33;;;;;;;;;;;13.30;54.90;;;;;;5163885;27;19917;-69
2022/02/05 14:14:03;;;;;;;;;;;13.30;54.90;;;;;;5163464;27;19911;-70
2022/02/05 14:16:30;;;;;;;;;;;13.30;55.10;;;;;;5163723;27;19903;-69
2022/02/05 14:18:59;;;;;;;;;;;13.30;55.00;;;;;;5163719;27;19903;-70
2022/02/05 14:21:35;;;;;;;;;;;13.40;55.20;;;;;;5163598;27;19919;-72
2022/02/05 14:24:02;;;;;;;;;;;13.40;55.00;;;;;;5163663;27;19937;-70
2022/02/05 14:26:36;;;;;;;;;;;13.40;55.00;;;;;;5163538;27;19911;-71
2022/02/05 14:29:04;;;;;;;;;;;13.40;55.10;;;;;;5163618;27;20470;-70
2022/02/05 14:35:05;;;;;;;;;;;13.40;55.10;;;;;;5117019;27;20401;-69
2022/02/05 14:40:28;;;;;;;;;;;13.40;55.20;;;;;;5163215;27;19922;-70
2022/02/05 14:42:54;;;;;;;;;;;13.40;55.10;;;;;;5163291;27;19903;-71
2022/02/05 14:45:19;;;;;;;;;;;13.50;55.10;;;;;;5163160;27;20224;-70
2022/02/05 14:47:45;;;;;;;;;;;13.50;55.00;;;;;;5163120;27;20200;-70
2022/02/05 14:50:12;;;;;;;;;;;13.50;55.10;;;;;;5163045;27;19903;-70
2022/02/05 14:52:38;;;;;;;;;;;13.50;54.80;;;;;;5163045;27;19959;-69
2022/02/05 14:55:04;;;;;;;;;;;13.50;55.00;;;;;;5144377;27;19938;-70
2022/02/05 14:57:29;;;;;;;;;;;13.50;54.90;;;;;;5162995;27;20211;-69
2022/02/05 14:59:55;;;;;;;;;;;13.50;55.00;;;;;;5162780;27;19947;-70
2022/02/05 15:02:21;;;;;;;;;;;13.50;55.10;;;;;;5144020;27;19911;-70
2022/02/05 15:04:47;;;;;;;;;;;13.50;54.80;;;;;;5162778;27;19918;-70
2022/02/05 15:07:16;;;;;;;;;;;13.50;55.00;;;;;;5162759;27;19952;-70
2022/02/05 15:09:42;;;;;;;;;;;13.50;55.00;;;;;;5162732;27;20251;-71
2022/02/05 15:12:07;;;;;;;;;;;13.50;55.00;;;;;;5162600;27;19911;-71
2022/02/05 15:14:33;;;;;;;;;;;13.50;55.20;;;;;;5162660;27;19904;-70
2022/02/05 15:16:59;;;;;;;;;;;13.40;55.10;;;;;;5162484;27;19911;-70
2022/02/05 15:19:25;;;;;;;;;;;13.40;55.20;;;;;;5162520;27;19911;-71
2022/02/05 15:21:51;;;;;;;;;;;13.40;55.40;;;;;;5162426;27;20204;-70
2022/02/05 15:24:16;;;;;;;;;;;13.40;55.70;;;;;;5162371;27;19919;-70
2022/02/05 15:26:42;;;;;;;;;;;13.40;55.70;;;;;;5162338;27;19911;-70
2022/02/05 15:29:12;;;;;;;;;;;13.30;55.70;;;;;;5162274;27;19911;-70
2022/02/05 15:31:39;;;;;;;;;;;13.30;55.90;;;;;;5162341;27;20307;-69
2022/02/05 15:34:06;;;;;;;;;;;13.30;55.80;;;;;;5162240;27;19932;-70
2022/02/05 15:36:40;;;;;;;;;;;13.30;55.60;;;;;;5143703;27;19947;-70
2022/02/05 15:44:25;;;;;;;;;;;13.20;55.60;;;;;;5162026;27;19910;-68
2022/02/05 15:46:51;;;;;;;;;;;13.20;55.70;;;;;;5143465;27;19910;-69
2022/02/05 15:49:17;;;;;;;;;;;13.20;55.90;;;;;;5161969;27;19911;-69
2022/02/05 15:51:42;;;;;;;;;;;13.20;55.90;;;;;;5161987;27;20103;-69
2022/02/05 15:54:11;;;;;;;;;;;13.20;55.90;;;;;;5161930;27;19938;-68
2022/02/05 15:59:04;;;;;;;;;;;13.20;55.80;;;;;;5162009;27;19937;-71
2022/02/05 16:01:32;;;;;;;;;;;13.20;55.90;;;;;;5161544;27;20204;-70
2022/02/05 16:03:58;;;;;;;;;;;13.20;55.90;;;;;;5161398;27;19922;-69
2022/02/05 16:06:23;;;;;;;;;;;13.20;56.10;;;;;;5161817;27;19907;-71
2022/02/05 16:08:49;;;;;;;;;;;13.20;56.00;;;;;;5143240;27;20388;-70
2022/02/05 16:11:17;;;;;;;;;;;13.20;55.90;;;;;;5161693;27;19911;-70
2022/02/05 16:13:46;;;;;;;;;;;13.20;55.80;;;;;;5161791;27;20108;-70
2022/02/05 16:16:11;;;;;;;;;;;13.20;55.80;;;;;;5161713;27;20138;-70
2022/02/05 16:18:37;;;;;;;;;;;13.20;55.90;;;;;;5161622;27;19911;-69
2022/02/05 16:21:03;;;;;;;;;;;13.20;55.80;;;;;;5161539;27;19915;-69
2022/02/05 16:23:29;;;;;;;;;;;13.20;55.90;;;;;;5161550;27;19974;-69
2022/02/05 16:25:55;;;;;;;;;;;13.20;55.80;;;;;;5161583;27;19911;-71
2022/02/05 16:28:21;;;;;;;;;;;13.10;55.80;;;;;;5161586;27;19903;-70
2022/02/05 16:30:47;;;;;;;;;;;13.20;56.00;;;;;;5161556;27;19911;-69
2022/02/05 16:33:17;;;;;;;;;;;13.10;56.00;;;;;;5161492;27;20119;-70
2022/02/05 16:35:48;;;;;;;;;;;13.10;55.90;;;;;;5161531;27;19925;-70
2022/02/05 16:38:19;;;;;;;;;;;13.10;55.70;;;;;;5161574;27;19911;-70
2022/02/05 16:40:45;;;;;;;;;;;13.10;55.90;;;;;;5161411;27;19922;-70
2022/02/05 16:43:11;;;;;;;;;;;13.10;55.60;;;;;;5161488;27;20099;-71
2022/02/05 16:45:37;;;;;;;;;;;13.10;56.00;;;;;;5161377;27;19989;-70
2022/02/05 16:48:05;;;;;;;;;;;13.10;56.60;;;;;;5161477;27;19951;-71
2022/02/05 16:50:31;;;;;;;;;;;13.10;55.90;;;;;;5142800;27;19950;-71
2022/02/05 16:53:01;;;;;;;;;;;13.10;56.00;;;;;;5161332;27;19914;-70
2022/02/05 16:55:27;;;;;;;;;;;13.10;55.80;;;;;;5165404;27;20386;-70
2022/02/05 16:57:52;;;;;;;;;;;13.10;55.60;;;;;;5165374;27;19911;-70
2022/02/05 17:00:18;;;;;;;;;;;13.10;55.70;;;;;;5165185;27;20030;-71
2022/02/05 17:02:44;;;;;;;;;;;13.10;55.90;;;;;;5164988;27;20107;-69
2022/02/05 17:05:10;;;;;;;;;;;13.10;55.90;;;;;;5165226;27;19919;-70
2022/02/05 17:07:35;;;;;;;;;;;13.10;55.80;;;;;;5165266;27;19970;-70
2022/02/05 17:10:02;;;;;;;;;;;13.10;55.80;;;;;;5165230;27;19911;-70
2022/02/05 17:12:27;;;;;;;;;;;13.10;55.90;;;;;;5165137;27;20139;-70
2022/02/05 17:14:55;;;;;;;;;;;13.10;55.90;;;;;;5165063;27;19903;-70
2022/02/05 17:17:21;;;;;;;;;;;13.00;55.70;;;;;;5165083;27;19910;-70
2022/02/05 17:19:52;;;;;;;;;;;13.10;55.90;;;;;;5165141;27;19911;-70
2022/02/05 17:22:24;;;;;;;;;;;13.10;55.90;;;;;;5164914;27;19922;-70
2022/02/05 17:24:50;;;;;;;;;;;13.10;55.90;;;;;;5164934;27;20259;-70
2022/02/05 17:27:16;;;;;;;;;;;13.00;55.90;;;;;;5146269;27;19952;-70